Time;durP1;ratioP1;P1;durP2;ratioP2;P2;SDS_P1;SDS_P2;PMS_P1;PMS_P2;Temp;Humidity;BMP_temperature;BMP_pressure;BME280_temperature;BME280_humidity;BME280_pressure;Samples;Min_cycle;Max_cycle;Signal;HPM_P1;HPM_P2
2024/02/10 00:00:05;;;;;;;26.90;13.93;;;;;;;8.73;63.01;98894.41;5031750;28;20103;-40
2024/02/10 00:02:31;;;;;;;26.45;13.32;;;;;;;8.82;62.23;98894.97;5031417;28;20029;-41
2024/02/10 00:04:57;;;;;;;26.55;13.48;;;;;;;8.71;62.56;98888.50;5032490;28;20316;-40
2024/02/10 00:07:22;;;;;;;27.73;13.90;;;;;;;8.48;63.72;98883.72;5031960;28;20057;-40
2024/02/10 00:09:48;;;;;;;28.60;14.27;;;;;;;8.47;63.71;98880.22;5032298;28;20461;-38
2024/02/10 00:12:13;;;;;;;29.35;14.07;;;;;;;8.08;65.51;98884.63;5031890;28;20083;-40
2024/02/10 00:14:41;;;;;;;31.35;13.77;;;;;;;8.35;64.38;98888.00;5031797;28;20021;-40
2024/02/10 00:17:09;;;;;;;29.73;14.60;;;;;;;8.52;63.70;98892.88;5031809;28;20128;-39
2024/02/10 00:19:36;;;;;;;30.85;14.27;;;;;;;8.36;64.20;98899.44;5031891;28;20474;-39
2024/02/10 00:22:06;;;;;;;28.02;14.20;;;;;;;8.16;64.85;98894.19;5031935;28;20022;-37
2024/02/10 00:24:33;;;;;;;25.67;13.75;;;;;;;8.40;64.23;98892.69;5031569;28;20021;-39
2024/02/10 00:27:01;;;;;;;29.48;14.13;;;;;;;8.26;64.70;98897.19;5031640;28;20029;-39
2024/02/10 00:29:27;;;;;;;26.65;14.52;;;;;;;8.17;65.35;98893.97;5031858;28;20025;-39
2024/02/10 00:31:53;;;;;;;29.80;14.43;;;;;;;8.15;65.13;98896.03;5031849;28;20018;-39
2024/02/10 00:34:19;;;;;;;28.05;15.15;;;;;;;7.74;66.27;98898.94;5031626;28;20028;-38
2024/02/10 00:36:45;;;;;;;30.27;15.13;;;;;;;7.71;66.13;98910.78;5031460;28;20032;-38
2024/02/10 00:39:11;;;;;;;32.33;15.20;;;;;;;7.79;66.34;98920.34;5031300;28;20029;-39
2024/02/10 00:41:38;;;;;;;34.38;16.65;;;;;;;7.94;65.44;98930.69;5031254;28;20025;-40
2024/02/10 00:44:04;;;;;;;37.88;16.38;;;;;;;7.96;65.06;98926.84;5031619;28;20048;-40
2024/02/10 00:46:31;;;;;;;30.67;16.10;;;;;;;7.82;65.70;98927.88;5031511;28;20048;-39
2024/02/10 00:48:57;;;;;;;30.15;17.35;;;;;;;7.55;66.98;98932.38;5031570;28;20689;-38
2024/02/10 00:51:22;;;;;;;39.00;16.77;;;;;;;7.50;67.17;98927.69;5031167;28;20527;-39
2024/02/10 00:53:48;;;;;;;31.10;16.05;;;;;;;7.64;67.38;98925.84;5031093;28;20708;-40
2024/02/10 00:56:13;;;;;;;35.75;16.85;;;;;;;7.72;66.72;98933.56;5031111;28;20084;-39
2024/02/10 00:58:44;;;;;;;29.35;14.90;;;;;;;7.81;66.68;98916.47;5031151;28;20163;-40
2024/02/10 01:01:12;;;;;;;28.42;15.05;;;;;;;7.97;66.47;98906.44;5030658;28;20032;-41
2024/02/10 01:03:44;;;;;;;29.02;13.60;;;;;;;7.87;66.71;98906.88;5030778;28;20033;-40
2024/02/10 01:06:20;;;;;;;28.23;14.15;;;;;;;8.05;66.44;98910.72;5030747;28;20067;-40
2024/02/10 01:08:48;;;;;;;26.13;13.63;;;;;;;8.05;65.84;98911.53;5030918;28;20033;-40
2024/02/10 01:11:17;;;;;;;25.40;13.95;;;;;;;8.07;65.83;98911.31;5030715;28;20543;-37
2024/02/10 01:13:45;;;;;;;27.77;14.00;;;;;;;7.71;67.05;98908.13;5029935;28;20435;-40
2024/02/10 01:16:15;;;;;;;21.33;12.82;;;;;;;7.63;67.18;98908.31;5030620;28;20033;-40
2024/02/10 01:18:41;;;;;;;23.33;12.45;;;;;;;7.51;67.48;98896.72;5030482;28;20081;-40
2024/02/10 01:21:10;;;;;;;26.50;12.52;;;;;;;7.51;67.88;98892.25;5030594;28;20034;-39
2024/02/10 01:23:42;;;;;;;23.52;12.18;;;;;;;7.71;67.03;98892.25;5030597;28;20025;-40
2024/02/10 01:26:12;;;;;;;19.48;11.48;;;;;;;7.71;67.32;98899.34;5030552;28;20040;-41
2024/02/10 01:28:37;;;;;;;;;;;;;;;7.78;66.82;98895.66;5031219;28;20044;-39
2024/02/10 01:31:08;;;;;;;22.10;11.00;;;;;;;7.83;66.34;98898.53;5030273;28;19909;-39
2024/02/10 01:33:34;;;;;;;20.95;11.10;;;;;;;8.01;66.16;98899.72;5031083;28;20112;-40
2024/02/10 01:36:03;;;;;;;23.15;10.93;;;;;;;8.05;65.71;98897.47;5031315;28;20440;-40
2024/02/10 01:38:28;;;;;;;25.23;11.02;;;;;;;8.00;65.41;98903.41;5031015;28;20405;-41
2024/02/10 01:40:54;;;;;;;27.38;11.43;;;;;;;8.06;65.79;98902.56;5031121;28;20021;-40
2024/02/10 01:43:19;;;;;;;21.75;11.20;;;;;;;7.79;66.74;98904.44;5029469;28;20525;-36
2024/02/10 01:45:45;;;;;;;24.40;10.55;;;;;;;7.61;67.73;98910.34;5031028;28;20030;-40
2024/02/10 01:48:11;;;;;;;21.70;11.82;;;;;;;7.81;67.10;98897.91;5031106;28;20108;-39
2024/02/10 01:50:36;;;;;;;23.40;11.60;;;;;;;7.74;67.19;98909.53;5031485;28;20101;-39
2024/02/10 01:53:04;;;;;;;24.02;11.68;;;;;;;7.67;67.25;98917.47;5030719;28;20022;-40
2024/02/10 01:55:30;;;;;;;21.05;10.60;;;;;;;7.77;66.51;98914.44;5030832;28;20485;-37
2024/02/10 01:58:00;;;;;;;19.30;11.05;;;;;;;7.70;66.40;98917.06;5030981;28;20108;-41
2024/02/10 02:00:26;;;;;;;23.42;11.20;;;;;;;7.49;67.71;98910.16;5030823;28;20026;-39
2024/02/10 02:02:59;;;;;;;22.25;10.77;;;;;;;7.63;67.74;98906.50;5030562;28;20060;-39
2024/02/10 02:05:27;;;;;;;25.88;10.95;;;;;;;7.85;66.22;98906.28;5030641;28;20021;-41
2024/02/10 02:07:55;;;;;;;19.25;10.55;;;;;;;7.76;66.36;98910.97;5031250;28;20481;-40
2024/02/10 02:10:21;;;;;;;19.30;10.65;;;;;;;7.62;66.79;98910.16;5030754;28;20027;-40
2024/02/10 02:12:50;;;;;;;20.55;10.45;;;;;;;7.60;67.16;98911.41;5029995;28;20408;-41
2024/02/10 02:15:19;;;;;;;18.77;10.90;;;;;;;7.79;66.34;98912.41;5030415;28;20028;-40
2024/02/10 02:17:45;;;;;;;19.85;10.23;;;;;;;7.73;66.20;98915.84;5030595;28;20061;-40
2024/02/10 02:20:12;;;;;;;20.98;11.10;;;;;;;7.41;66.91;98910.38;5030691;28;20026;-40
2024/02/10 02:22:46;;;;;;;19.75;10.43;;;;;;;7.73;66.20;98906.09;5038791;28;20107;-40
2024/02/10 02:25:11;;;;;;;21.80;10.75;;;;;;;7.87;65.88;98904.22;5040177;28;20028;-39
2024/02/10 02:27:37;;;;;;;22.85;10.65;;;;;;;7.88;65.30;98905.03;5034635;28;20025;-40
2024/02/10 02:30:03;;;;;;;20.17;11.13;;;;;;;7.82;65.39;98907.50;5034369;28;20045;-26
2024/02/10 02:32:28;;;;;;;20.90;11.00;;;;;;;7.44;67.32;98902.00;5033126;28;20087;-26
2024/02/10 02:34:55;;;;;;;20.75;11.38;;;;;;;7.30;67.87;98900.38;5034442;28;20080;-26
2024/02/10 02:37:22;;;;;;;19.63;10.48;;;;;;;7.14;68.71;98889.19;5050933;28;20100;-25
2024/02/10 02:39:48;;;;;;;19.27;10.55;;;;;;;7.37;67.23;98893.28;5054205;28;20025;-25
2024/02/10 02:42:14;;;;;;;22.08;10.90;;;;;;;7.40;67.50;98882.25;5054265;28;20124;-25
2024/02/10 02:44:39;;;;;;;20.45;10.45;;;;;;;7.49;67.20;98888.97;5054297;28;20055;-26
2024/02/10 02:47:05;;;;;;;19.60;11.25;;;;;;;7.30;67.63;98903.03;5054054;28;20104;-26
2024/02/10 02:49:31;;;;;;;18.83;10.52;;;;;;;7.41;67.47;98894.50;5053923;28;20469;-26
2024/02/10 02:51:56;;;;;;;22.73;10.75;;;;;;;7.38;67.94;98890.41;5053800;28;20396;-26
2024/02/10 02:54:22;;;;;;;18.42;10.77;;;;;;;7.13;68.59;98894.66;5053873;28;20032;-26
2024/02/10 02:56:51;;;;;;;19.77;10.85;;;;;;;7.07;68.21;98883.06;5041549;28;20522;-26
2024/02/10 02:59:17;;;;;;;20.40;10.07;;;;;;;7.14;68.72;98899.75;5034108;28;20053;-27
2024/02/10 03:01:42;;;;;;;22.25;10.65;;;;;;;7.07;68.28;98903.41;5026996;28;20435;-25
2024/02/10 03:04:08;;;;;;;18.80;9.98;;;;;;;6.85;69.23;98898.25;5014118;28;20037;-26
2024/02/10 03:06:33;;;;;;;23.35;11.30;;;;;;;6.89;69.46;98912.72;5013897;28;20056;-26
2024/02/10 03:08:59;;;;;;;18.83;10.27;;;;;;;6.60;70.17;98909.38;5013623;28;20034;-26
2024/02/10 03:11:26;;;;;;;16.80;10.02;;;;;;;7.00;69.63;98914.78;5013872;28;20072;-26
2024/02/10 03:13:52;;;;;;;19.77;10.05;;;;;;;7.24;68.12;98904.66;5014212;28;20449;-25
2024/02/10 03:16:19;;;;;;;20.30;10.68;;;;;;;7.23;68.63;98916.25;5013825;28;20033;-26
2024/02/10 03:18:45;;;;;;;21.45;10.52;;;;;;;7.06;68.53;98902.56;5013527;28;20136;-26
2024/02/10 03:21:15;;;;;;;21.08;10.73;;;;;;;7.03;69.11;98908.28;5013614;28;20041;-26
2024/02/10 03:23:41;;;;;;;19.65;11.18;;;;;;;6.88;69.18;98911.09;5013767;28;20347;-39
2024/02/10 03:26:07;;;;;;;19.40;10.95;;;;;;;6.77;70.18;98909.84;5032519;28;20030;-39
2024/02/10 03:28:36;;;;;;;23.38;11.82;;;;;;;7.08;69.27;98908.47;5033261;28;20179;-39
2024/02/10 03:31:02;;;;;;;21.30;10.77;;;;;;;6.89;69.36;98907.41;5033150;28;20030;-38
2024/02/10 03:33:30;;;;;;;23.80;11.40;;;;;;;6.69;70.13;98904.75;5032728;28;20025;-40
2024/02/10 03:35:57;;;;;;;21.10;10.60;;;;;;;6.78;69.92;98910.69;5032694;28;20129;-39
2024/02/10 03:38:22;;;;;;;21.25;10.88;;;;;;;6.74;70.35;98912.91;5032169;28;20509;-40
2024/02/10 03:40:48;;;;;;;25.10;12.00;;;;;;;6.80;70.32;98898.06;5033175;28;20037;-41
2024/02/10 03:43:14;;;;;;;25.77;11.77;;;;;;;6.76;69.51;98917.97;5033024;28;20370;-41
2024/02/10 03:45:39;;;;;;;20.20;11.63;;;;;;;6.84;69.56;98912.53;5032831;28;20033;-41
2024/02/10 03:48:07;;;;;;;24.15;11.38;;;;;;;6.78;69.57;98916.78;5032957;28;20029;-41
2024/02/10 03:50:33;;;;;;;24.17;11.88;;;;;;;6.47;70.96;98909.31;5032664;28;20025;-40
2024/02/10 03:52:59;;;;;;;25.38;11.77;;;;;;;6.76;70.09;98916.16;5033139;28;20079;-40
2024/02/10 03:55:24;;;;;;;24.23;11.80;;;;;;;6.69;69.77;98909.22;5033003;28;20037;-39
2024/02/10 03:57:53;;;;;;;20.65;12.23;;;;;;;6.45;71.24;98914.81;5032394;28;20116;-40
2024/02/10 04:00:26;;;;;;;22.75;12.10;;;;;;;6.41;71.56;98929.44;5032502;28;20509;-40
2024/02/10 04:02:55;;;;;;;22.63;12.25;;;;;;;6.54;71.46;98936.59;5033224;28;20036;-40
2024/02/10 04:05:21;;;;;;;24.70;11.75;;;;;;;6.48;71.99;98939.25;5031444;28;20059;-40
2024/02/10 04:07:49;;;;;;;22.00;11.80;;;;;;;6.77;70.32;98941.56;5033186;28;20037;-39
2024/02/10 04:10:15;;;;;;;21.80;12.25;;;;;;;6.68;70.50;98934.81;5032738;28;20097;-41
2024/02/10 04:12:41;;;;;;;23.95;12.40;;;;;;;6.79;70.87;98931.59;5032482;28;20033;-41
2024/02/10 04:15:11;;;;;;;21.92;12.60;;;;;;;6.81;70.80;98931.41;5032888;28;20112;-41
2024/02/10 04:17:36;;;;;;;23.98;12.52;;;;;;;6.89;70.60;98933.06;5032055;28;20516;-41
2024/02/10 04:20:03;;;;;;;23.67;12.05;;;;;;;6.76;70.93;98939.13;5032633;28;20033;-39
2024/02/10 04:22:29;;;;;;;24.15;11.63;;;;;;;6.80;70.44;98935.09;5032450;28;20143;-40
2024/02/10 04:24:57;;;;;;;26.35;12.30;;;;;;;6.55;71.79;98919.75;5032003;28;20579;-40
2024/02/10 04:27:23;;;;;;;24.23;11.90;;;;;;;6.84;70.90;98923.09;5032281;28;20465;-39
2024/02/10 04:29:48;;;;;;;26.00;12.95;;;;;;;6.80;71.13;98917.38;5032443;28;20033;-39
2024/02/10 04:32:14;;;;;;;27.25;12.73;;;;;;;6.82;70.76;98927.78;5032941;28;20028;-41
2024/02/10 04:34:40;;;;;;;26.27;12.52;;;;;;;6.91;70.53;98934.53;5032923;28;20489;-39
2024/02/10 04:37:06;;;;;;;25.25;11.38;;;;;;;6.87;70.67;98925.31;5033022;28;20018;-41
2024/02/10 04:39:34;;;;;;;24.73;12.18;;;;;;;7.34;68.53;98915.66;5032574;28;20079;-40
2024/02/10 04:42:00;;;;;;;27.25;12.30;;;;;;;6.88;69.67;98911.09;5031472;28;20466;-40
2024/02/10 04:44:25;;;;;;;22.63;12.10;;;;;;;6.87;70.04;98927.97;5032747;28;20460;-40
2024/02/10 04:46:50;;;;;;;22.50;12.00;;;;;;;6.70;70.73;98911.66;5031872;28;20040;-40
2024/02/10 04:49:18;;;;;;;27.48;12.48;;;;;;;6.79;70.53;98918.38;5031967;28;20030;-41
2024/02/10 04:51:43;;;;;;;28.90;13.63;;;;;;;6.90;69.83;98903.78;5031140;28;20021;-38
2024/02/10 04:54:09;;;;;;;31.52;13.38;;;;;;;7.04;69.24;98913.38;5032705;28;20028;-25
2024/02/10 04:56:35;;;;;;;28.35;13.27;;;;;;;7.09;69.63;98906.69;5031080;28;20033;-27
2024/02/10 04:59:00;;;;;;;27.85;13.35;;;;;;;6.94;69.92;98915.59;5031717;28;20021;-26
2024/02/10 05:01:32;;;;;;;30.30;13.38;;;;;;;7.08;69.07;98913.78;5031606;28;20021;-27
2024/02/10 05:03:57;;;;;;;27.70;13.48;;;;;;;6.95;69.74;98901.34;5032402;28;20026;-26
2024/02/10 05:06:26;;;;;;;23.77;13.13;;;;;;;6.76;70.53;98908.22;5032223;28;20024;-30
2024/02/10 05:08:51;;;;;;;29.25;13.20;;;;;;;6.72;70.61;98904.34;5030598;28;20017;-26
2024/02/10 05:11:17;;;;;;;25.90;13.70;;;;;;;6.38;72.57;98892.03;5032453;28;20572;-26
2024/02/10 05:13:42;;;;;;;25.80;12.40;;;;;;;6.59;72.13;98893.72;5032390;28;20390;-27
2024/02/10 05:16:10;;;;;;;29.20;15.07;;;;;;;6.59;71.60;98907.75;5032766;28;20017;-41
2024/02/10 05:18:35;;;;;;;31.23;15.80;;;;;;;6.62;70.78;98906.53;5046383;28;20091;-40
2024/02/10 05:21:00;;;;;;;26.60;15.15;;;;;;;6.64;70.51;98908.00;5052146;28;20028;-27
2024/02/10 05:23:26;;;;;;;29.92;15.85;;;;;;;6.48;70.84;98905.69;5052281;28;20021;-27
2024/02/10 05:25:51;;;;;;;31.40;15.73;;;;;;;5.81;72.56;98905.28;5035280;28;20021;-26
2024/02/10 05:28:23;;;;;;;31.65;16.38;;;;;;;5.94;72.43;98912.50;5030357;28;20108;-27
2024/02/10 05:30:48;;;;;;;32.55;16.73;;;;;;;5.85;73.45;98898.59;5035787;28;20032;-26
2024/02/10 05:33:18;;;;;;;34.60;17.27;;;;;;;6.14;73.22;98904.69;5037612;28;20026;-29
2024/02/10 05:35:46;;;;;;;38.30;20.98;;;;;;;6.28;71.45;98920.63;5024961;28;20013;-39
2024/02/10 05:38:13;;;;;;;40.03;20.55;;;;;;;6.23;72.60;98921.22;5032577;28;20076;-27
2024/02/10 05:40:38;;;;;;;36.45;18.15;;;;;;;6.12;72.39;98929.69;5051787;28;20043;-27
2024/02/10 05:43:08;;;;;;;37.28;19.50;;;;;;;6.18;71.89;98937.63;5051565;28;20413;-28
2024/02/10 05:45:34;;;;;;;39.15;20.77;;;;;;;6.46;70.97;98926.22;5047168;28;20073;-27
2024/02/10 05:48:00;;;;;;;38.92;20.05;;;;;;;6.21;72.03;98925.88;5044871;28;20491;-26
2024/02/10 05:50:26;;;;;;;37.80;19.02;;;;;;;6.69;81.64;98935.66;5049721;28;20029;-26
2024/02/10 05:52:53;;;;;;;43.78;20.02;;;;;;;7.21;74.96;98942.91;5038741;28;20032;-26
2024/02/10 05:55:26;;;;;;;33.53;18.85;;;;;;;7.74;79.48;98936.84;5040448;28;20029;-27
2024/02/10 05:57:58;;;;;;;38.20;17.17;;;;;;;8.71;73.44;98938.88;5037855;28;20025;-27
2024/02/10 06:00:24;;;;;;;33.85;17.02;;;;;;;8.48;71.30;98952.66;5042488;28;20025;-27
2024/02/10 06:02:50;;;;;;;39.83;17.40;;;;;;;7.64;65.71;98939.91;5048853;28;20041;-27
2024/02/10 06:05:15;;;;;;;33.05;16.65;;;;;;;8.26;69.56;98923.69;5035455;28;20029;-27
2024/02/10 06:07:45;;;;;;;32.83;15.57;;;;;;;9.00;68.25;98933.03;5035442;28;20048;-26
2024/02/10 06:10:14;;;;;;;;;;;;;;;9.81;59.70;98938.59;5036193;28;20095;-27
2024/02/10 06:12:47;;;;;;;33.63;15.85;;;;;;;8.56;61.97;98929.34;5035239;28;20008;-41
2024/02/10 06:15:13;;;;;;;39.88;16.63;;;;;;;7.48;65.90;98931.53;5035517;28;20087;-27
2024/02/10 06:17:39;;;;;;;32.63;18.13;;;;;;;7.24;66.91;98928.47;5030391;28;20100;-26
2024/02/10 06:20:14;;;;;;;33.05;17.10;;;;;;;7.08;68.31;98939.41;5029849;28;20080;-26
2024/02/10 06:22:41;;;;;;;32.10;17.10;;;;;;;6.67;70.39;98966.78;5035284;28;20030;-27
2024/02/10 06:25:11;;;;;;;36.78;17.95;;;;;;;6.91;69.98;98973.34;5035052;28;20405;-41
2024/02/10 06:27:38;;;;;;;35.05;17.20;;;;;;;7.35;67.46;98998.50;5034730;28;20108;-40
2024/02/10 06:30:04;;;;;;;33.42;18.17;;;;;;;7.20;68.60;98990.75;5034775;28;20030;-41
2024/02/10 06:32:34;;;;;;;35.60;18.33;;;;;;;6.85;69.71;98981.09;5034882;28;20029;-40
2024/02/10 06:35:00;;;;;;;35.67;17.30;;;;;;;6.99;69.00;98981.13;5029579;28;20029;-40
2024/02/10 06:37:25;;;;;;;33.20;16.48;;;;;;;7.01;69.21;98977.25;5016653;28;20014;-41
2024/02/10 06:39:51;;;;;;;30.83;16.05;;;;;;;6.81;70.39;98977.19;5034675;28;20028;-27
2024/02/10 06:42:17;;;;;;;28.77;14.43;;;;;;;6.76;70.67;98976.13;5035116;28;20025;-27
2024/02/10 06:44:43;;;;;;;26.02;13.18;;;;;;;6.94;69.86;98965.84;5034322;28;20396;-26
2024/02/10 06:47:08;;;;;;;29.30;13.27;;;;;;;6.94;69.83;98965.84;5034977;28;20029;-26
2024/02/10 06:49:34;;;;;;;29.95;13.45;;;;;;;7.31;68.33;98976.09;5034509;28;20021;-27
2024/02/10 06:52:03;;;;;;;32.08;14.85;;;;;;;7.41;68.72;98980.00;5034697;28;20021;-27
2024/02/10 06:54:29;;;;;;;35.08;16.90;;;;;;;7.58;68.78;98987.56;5034737;28;20035;-42
2024/02/10 06:56:57;;;;;;;39.17;19.63;;;;;;;7.68;67.47;98998.56;5034483;28;20100;-41
2024/02/10 06:59:25;;;;;;;33.95;16.05;;;;;;;7.95;66.66;99012.63;5034355;28;20030;-40
2024/02/10 07:01:54;;;;;;;31.48;15.43;;;;;;;8.20;66.28;98996.91;5033601;28;20037;-41
2024/02/10 07:04:22;;;;;;;31.08;15.52;;;;;;;8.15;65.89;98993.28;5039102;28;20029;-42
2024/02/10 07:06:53;;;;;;;30.65;15.10;;;;;;;8.54;64.62;98997.69;5033604;28;20087;-41
2024/02/10 07:09:21;;;;;;;31.88;17.00;;;;;;;8.69;63.64;98991.34;5041672;28;20091;-41
2024/02/10 07:11:48;;;;;;;34.40;16.75;;;;;;;8.82;67.49;98996.59;5045323;28;20025;-41
2024/02/10 07:14:13;;;;;;;35.90;18.30;;;;;;;8.96;62.95;98987.53;5044318;28;20431;-40
2024/02/10 07:16:38;;;;;;;34.42;17.80;;;;;;;9.03;62.58;98995.47;5041639;28;20029;-45
2024/02/10 07:19:06;;;;;;;38.17;19.55;;;;;;;9.11;61.91;98989.13;5044164;28;20044;-39
2024/02/10 07:21:33;;;;;;;43.38;19.25;;;;;;;9.39;60.88;98986.91;5043106;28;20049;-40
2024/02/10 07:24:05;;;;;;;37.13;18.65;;;;;;;9.17;61.89;98975.00;5036964;28;20068;-41
2024/02/10 07:26:33;;;;;;;43.85;18.65;;;;;;;9.25;62.03;98988.00;5041812;28;20032;-41
2024/02/10 07:29:00;;;;;;;43.72;19.88;;;;;;;9.35;61.79;98995.53;5039903;28;20116;-36
2024/02/10 07:31:28;;;;;;;38.70;19.88;;;;;;;9.74;60.49;98998.94;5042622;28;20035;-40
2024/02/10 07:34:03;;;;;;;43.38;20.17;;;;;;;9.97;59.07;99011.63;5046162;28;20110;-42
2024/02/10 07:36:35;;;;;;;42.80;20.75;;;;;;;10.45;57.37;99018.19;5052843;28;20597;-41
2024/02/10 07:39:07;;;;;;;40.83;20.60;;;;;;;10.57;57.53;99003.13;5040266;28;20029;-37
2024/02/10 07:41:38;;;;;;;40.50;21.00;;;;;;;10.67;56.86;98994.63;5030160;28;20061;-40
2024/02/10 07:44:06;;;;;;;44.25;20.90;;;;;;;11.21;54.96;98986.78;5043926;28;20040;-39
2024/02/10 07:46:34;;;;;;;40.85;22.15;;;;;;;11.44;54.63;99002.84;5042751;28;20033;-42
2024/02/10 07:49:04;;;;;;;47.13;22.35;;;;;;;11.80;53.61;99001.06;5041792;28;20495;-39
2024/02/10 07:51:31;;;;;;;47.92;24.10;;;;;;;11.90;52.72;98996.03;5043542;28;20452;-39
2024/02/10 07:53:58;;;;;;;46.67;23.25;;;;;;;11.95;53.53;99006.00;5032948;28;20021;-38
2024/02/10 07:56:24;;;;;;;44.70;21.13;;;;;;;12.41;52.14;99006.22;5032913;28;20026;-40
2024/02/10 07:58:49;;;;;;;38.83;20.42;;;;;;;12.69;50.73;99010.84;5032704;28;20431;-41
2024/02/10 08:01:17;;;;;;;37.72;19.20;;;;;;;13.13;50.24;99019.19;5032590;28;20036;-40
2024/02/10 08:03:44;;;;;;;43.13;19.10;;;;;;;13.20;49.13;99013.75;5032972;28;20053;-40
2024/02/10 08:06:09;;;;;;;39.88;18.20;;;;;;;13.18;49.08;99018.50;5032966;28;20025;-41
2024/02/10 08:08:35;;;;;;;33.20;17.50;;;;;;;13.32;48.42;99022.53;5033109;28;20056;-37
2024/02/10 08:11:00;;;;;;;36.40;17.27;;;;;;;13.12;48.77;99028.28;5032891;28;20017;-40
2024/02/10 08:13:27;;;;;;;32.67;17.75;;;;;;;13.65;48.71;99029.00;5032837;28;20026;-36
2024/02/10 08:15:54;;;;;;;34.60;17.67;;;;;;;13.68;47.51;99015.97;5037636;28;20035;-40
2024/02/10 08:18:19;;;;;;;33.10;17.65;;;;;;;13.87;47.01;99023.75;5043767;28;20041;-40
2024/02/10 08:20:45;;;;;;;34.67;17.83;;;;;;;13.84;46.40;99021.56;5042031;28;20029;-40
2024/02/10 08:23:12;;;;;;;31.98;18.50;;;;;;;13.91;47.02;99029.44;5042184;28;20511;-40
2024/02/10 08:25:38;;;;;;;40.20;22.52;;;;;;;13.54;47.82;99033.38;5042720;28;20021;-43
2024/02/10 08:28:06;;;;;;;32.35;17.88;;;;;;;13.94;47.50;99024.41;5032553;28;20021;-43
2024/02/10 08:30:32;;;;;;;29.17;16.63;;;;;;;14.34;45.89;99006.56;5032651;28;20021;-41
2024/02/10 08:33:00;;;;;;;30.85;16.20;;;;;;;14.04;46.29;99013.88;5032593;28;20039;-41
2024/02/10 08:35:27;;;;;;;30.70;16.70;;;;;;;14.45;46.86;99011.81;5032332;28;20025;-40
2024/02/10 08:37:57;;;;;;;30.13;18.05;;;;;;;14.27;46.47;99006.72;5032211;28;20044;-38
2024/02/10 08:40:23;;;;;;;34.40;17.17;;;;;;;14.25;46.36;99008.84;5032336;28;20030;-41
2024/02/10 08:42:52;;;;;;;38.70;18.45;;;;;;;13.88;47.28;99007.47;5039636;28;20079;-39
2024/02/10 08:45:17;;;;;;;28.73;17.63;;;;;;;14.04;47.15;99013.06;5051051;28;20043;-40
2024/02/10 08:47:43;;;;;;;36.78;17.90;;;;;;;14.12;46.40;99006.50;5048633;28;20024;-39
2024/02/10 08:50:08;;;;;;;34.42;18.60;;;;;;;14.00;46.49;98994.03;5039869;28;20025;-39
2024/02/10 08:52:34;;;;;;;32.65;18.92;;;;;;;13.27;48.59;99004.53;5032937;28;20025;-37
2024/02/10 08:55:06;;;;;;;31.33;19.20;;;;;;;13.62;48.29;99014.25;5039861;28;20026;-42
2024/02/10 08:57:32;;;;;;;34.70;18.05;;;;;;;12.99;50.11;99010.66;5041017;28;20409;-38
2024/02/10 08:59:57;;;;;;;25.17;15.73;;;;;;;13.21;49.01;99008.16;5041403;28;20029;-42
2024/02/10 09:02:23;;;;;;;25.25;15.43;;;;;;;13.23;49.19;98997.22;5038538;28;20025;-40
2024/02/10 09:04:50;;;;;;;26.90;16.42;;;;;;;13.23;49.58;98995.38;5039977;28;20081;-40
2024/02/10 09:07:18;;;;;;;29.10;15.10;;;;;;;13.58;48.57;98996.28;5038212;28;20486;-42
2024/02/10 09:09:45;;;;;;;23.63;14.38;;;;;;;13.47;48.73;98992.59;5031530;28;20485;-28
2024/02/10 09:12:12;;;;;;;24.40;13.98;;;;;;;13.42;49.11;99008.53;5032073;28;20029;-27
2024/02/10 09:14:38;;;;;;;25.35;13.88;;;;;;;13.52;48.82;99008.75;5031540;28;20100;-27
2024/02/10 09:17:03;;;;;;;23.10;13.48;;;;;;;13.40;49.96;99007.97;5035340;28;20140;-26
2024/02/10 09:19:28;;;;;;;26.27;14.02;;;;;;;13.59;49.30;99001.34;5045527;28;20039;-27
2024/02/10 09:21:58;;;;;;;23.42;13.00;;;;;;;13.76;50.02;99001.38;5051295;28;20017;-25
2024/02/10 09:24:25;;;;;;;24.83;13.88;;;;;;;14.08;50.16;99003.50;5046715;28;20021;-28
2024/02/10 09:26:51;;;;;;;22.95;13.18;;;;;;;14.22;50.06;99010.16;5036633;28;20033;-27
2024/02/10 09:29:18;;;;;;;24.30;13.82;;;;;;;14.54;49.84;99012.19;5031733;28;20037;-27
2024/02/10 09:31:49;;;;;;;27.83;14.02;;;;;;;14.90;48.32;99003.84;5031372;28;20028;-28
2024/02/10 09:34:15;;;;;;;29.20;14.40;;;;;;;15.20;48.88;98998.03;5032854;28;20458;-28
2024/02/10 09:36:43;;;;;;;24.92;14.50;;;;;;;15.20;48.57;98998.03;5037160;28;20038;-26
2024/02/10 09:39:15;;;;;;;34.80;17.67;;;;;;;15.40;48.42;98995.56;5031190;28;20539;-27
2024/02/10 09:41:41;;;;;;;33.08;16.80;;;;;;;15.22;48.84;98985.97;5031065;28;20025;-27
2024/02/10 09:44:09;;;;;;;28.40;15.55;;;;;;;15.48;48.48;98988.94;5031010;28;20351;-27
2024/02/10 09:46:36;;;;;;;25.42;14.77;;;;;;;15.59;48.15;99001.38;5031270;28;20048;-27
2024/02/10 09:49:07;;;;;;;32.90;15.93;;;;;;;15.15;49.84;98996.06;5031349;28;20033;-27
2024/02/10 09:51:37;;;;;;;26.38;15.23;;;;;;;15.20;49.51;98990.78;5031539;28;20116;-27
2024/02/10 09:54:03;;;;;;;28.13;14.88;;;;;;;15.63;49.03;99001.63;5031386;28;20100;-27
2024/02/10 09:56:30;;;;;;;26.98;14.80;;;;;;;16.11;48.18;98991.88;5038382;28;20024;-27
2024/02/10 09:58:56;;;;;;;25.90;14.45;;;;;;;16.01;47.81;98989.94;5047713;28;20026;-28
2024/02/10 10:01:21;;;;;;;27.58;13.98;;;;;;;16.13;47.68;98973.63;5038053;28;20565;-28
2024/02/10 10:03:46;;;;;;;21.38;12.82;;;;;;;16.01;47.38;98981.06;5036615;28;20075;-33
2024/02/10 10:06:12;;;;;;;24.98;13.63;;;;;;;16.40;47.89;98992.31;5031165;28;20075;-28
2024/02/10 10:08:39;;;;;;;26.20;14.00;;;;;;;16.93;46.30;98991.53;5031257;28;20037;-28
2024/02/10 10:11:09;;;;;;;24.00;14.23;;;;;;;17.48;46.25;98994.63;5030886;28;20018;-27
2024/02/10 10:13:35;;;;;;;24.80;12.77;;;;;;;18.21;44.45;98988.19;5030949;28;20078;-27
2024/02/10 10:16:07;;;;;;;22.85;12.10;;;;;;;18.17;44.47;98982.53;5030672;28;20029;-30
2024/02/10 10:18:36;;;;;;;22.70;12.65;;;;;;;18.31;42.96;98982.78;5030779;28;20103;-27
2024/02/10 10:21:04;;;;;;;18.58;11.73;;;;;;;18.63;41.73;98970.84;5033276;28;20022;-27
2024/02/10 10:23:34;;;;;;;18.53;11.57;;;;;;;18.53;40.65;98972.47;5048639;28;20362;-28
2024/02/10 10:25:59;;;;;;;22.27;12.07;;;;;;;18.41;40.51;98969.28;5033008;28;20033;-28
2024/02/10 10:28:25;;;;;;;17.13;11.23;;;;;;;18.24;40.78;98982.25;5030740;28;20030;-27
2024/02/10 10:30:50;;;;;;;20.23;11.38;;;;;;;18.36;40.52;98980.06;5030640;28;20026;-27
2024/02/10 10:33:20;;;;;;;17.20;10.55;;;;;;;18.39;39.73;98967.94;5025295;28;20501;-28
2024/02/10 10:35:47;;;;;;;17.20;10.57;;;;;;;18.20;40.27;98979.31;5010626;28;20029;-28
2024/02/10 10:38:13;;;;;;;18.35;10.05;;;;;;;17.74;41.57;98982.00;5010684;28;20037;-28
2024/02/10 10:40:38;;;;;;;15.93;10.13;;;;;;;17.87;40.88;98970.72;5035758;28;20109;-27
2024/02/10 10:43:10;;;;;;;17.77;9.82;;;;;;;17.88;40.83;98958.88;5037799;28;20017;-27
2024/02/10 10:45:39;;;;;;;20.00;10.30;;;;;;;18.24;40.23;98966.09;5037622;28;20078;-29
2024/02/10 10:48:08;;;;;;;19.35;9.65;;;;;;;18.20;40.06;98965.84;5042117;28;20074;-28
2024/02/10 10:50:34;;;;;;;15.53;9.83;;;;;;;18.27;39.82;98965.56;5046773;28;20533;-27
2024/02/10 10:53:09;;;;;;;14.10;8.93;;;;;;;18.00;39.77;98966.66;5046416;28;20020;-27
2024/02/10 10:55:58;;;;;;;16.23;9.35;;;;;;;18.58;38.78;98958.16;5039021;28;20053;-28
2024/02/10 10:58:32;;;;;;;15.95;9.48;;;;;;;18.17;39.70;98963.69;5039372;28;20497;-27
2024/02/10 11:00:59;;;;;;;15.73;9.73;;;;;;;18.45;39.44;98956.06;5040350;28;20021;-27
2024/02/10 11:03:25;;;;;;;16.42;9.65;;;;;;;18.50;39.65;98934.50;5039972;28;20477;-28
2024/02/10 11:05:50;;;;;;;14.98;8.68;;;;;;;18.83;38.89;98938.44;5029929;28;20017;-27
2024/02/10 11:08:26;;;;;;;15.32;8.90;;;;;;;19.01;38.60;98926.22;5034476;28;20051;-26
2024/02/10 11:11:02;;;;;;;14.23;9.63;;;;;;;18.88;38.60;98919.53;5034607;28;20026;-28
2024/02/10 11:13:29;;;;;;;17.67;9.88;;;;;;;18.82;39.06;98920.66;5036919;28;20029;-27
2024/02/10 11:16:04;;;;;;;20.35;10.85;;;;;;;18.70;39.21;98931.72;5044610;28;20029;-27
2024/02/10 11:18:33;;;;;;;16.50;11.07;;;;;;;18.46;39.29;98928.06;5043190;28;20136;-27
2024/02/10 11:21:21;;;;;;;19.13;10.75;;;;;;;18.29;39.52;98923.00;5046673;28;20040;-28
2024/02/10 11:23:58;;;;;;;18.25;11.40;;;;;;;18.51;39.66;98923.47;5049160;28;20059;-28